Skip Navigation Links Skip Navigation Links

Current Weather

Lydd Airport, United Kingdom

For information only: do not use for flight planning or navigation.
Latest weather
Observation time Friday, December 3, 2021 10:20 AM GMT
Local time Friday, December 3, 2021 10:56 AM GMT
Flight conditions Instrument Meteorological Conditions
Winds
Wind direction Southwest (220°)
Wind speed 28 mph
Visibility 3.1 mi.
Present weather light drizzle
Sky condition
Ceiling 500 ft. broken clouds
Cloud layer broken clouds 500 ft.
Cloud layer broken clouds 900 ft.
Cloud layer overcast 1,400 ft.
Temperature 46°F
Dewpoint 45°F
Altimeter 29.71 in.Hg
Derived measurements
Relative humidity 93%
Wind chill 38°F
Density altitude -446 ft.
METAR EGMD 031020Z 22024KT 5000 -DZ BKN005 BKN009 OVC014 08/07 Q1006

Settings

Location code

InnerDrive.Weather 4.0.6770.0 Release CLR 4.0.30319.42000
Copyright ©2018 Inner Drive Technology. All rights reserved. Portions Copyright ©1986-2018 David Braverman.

Find weather

Site navigation


Skip Navigation Links

Place info

Page info

PayPal - The safer, easier way to pay online!

Return home.

Copyright ©2021 Inner Drive Technology. Purveyors of fine, hand-crafted computer software. Page printed 2021-12-03T10:56:12 UTC.